createdAt,value
2019-04-05T00:00:27.027Z,20.50
2019-04-05T00:13:49.180Z,20.50
2019-04-05T00:40:13.587Z,20.50
2019-04-05T00:53:20.866Z,20.50
2019-04-05T01:06:28.121Z,20.50
2019-04-05T01:19:35.374Z,20.50
2019-04-05T01:32:42.602Z,20.50
2019-04-05T01:58:52.307Z,20.50
2019-04-05T02:11:59.567Z,20.50
2019-04-05T02:25:06.889Z,20.60
2019-04-05T02:38:14.192Z,20.50
2019-04-05T02:51:21.425Z,20.50
2019-04-05T03:04:45.586Z,20.50
2019-04-05T03:18:08.346Z,20.50
2019-04-05T03:31:31.205Z,20.50
2019-04-05T03:44:54.017Z,20.60
2019-04-05T03:58:16.814Z,20.60
2019-04-05T04:11:39.620Z,20.50
2019-04-05T04:25:02.455Z,20.50
2019-04-05T04:38:25.262Z,20.50
2019-04-05T04:51:48.120Z,20.50
2019-04-05T05:05:10.924Z,20.60
2019-04-05T05:18:33.734Z,20.50
2019-04-05T05:31:56.520Z,20.60
2019-04-05T05:45:19.326Z,20.60
2019-04-05T06:11:43.836Z,20.60
2019-04-05T06:37:56.978Z,19.80
2019-04-05T06:51:04.284Z,19.70
2019-04-05T07:04:11.614Z,19.50
2019-04-05T07:17:19.116Z,19.60
2019-04-05T07:44:18.093Z,20.00
2019-04-05T07:57:25.459Z,20.00
2019-04-05T08:10:32.983Z,20.10
2019-04-05T08:23:40.218Z,20.00
2019-04-05T08:36:47.455Z,20.00
2019-04-05T08:50:11.300Z,19.80
2019-04-05T09:03:34.105Z,19.80
2019-04-05T09:16:56.920Z,19.70
2019-04-05T09:30:19.755Z,19.70
2019-04-05T09:43:42.555Z,20.00
2019-04-05T10:25:29.315Z,19.90
2019-04-05T10:52:27.114Z,20.00
2019-04-05T11:05:34.339Z,20.00
2019-04-05T11:18:41.590Z,20.40
2019-04-05T11:31:56.426Z,20.70
2019-04-05T11:44:56.532Z,20.60
2019-04-05T11:58:19.864Z,20.60
2019-04-05T12:24:44.306Z,20.70
2019-04-05T12:37:55.407Z,20.70
2019-04-05T12:51:01.293Z,20.70
2019-04-05T13:04:06.245Z,20.70
2019-04-05T13:17:13.503Z,20.80
2019-04-05T13:30:37.750Z,20.90
2019-04-05T13:44:01.495Z,21.00
2019-04-05T13:57:23.327Z,21.10
2019-04-05T14:10:46.151Z,21.20
2019-04-05T14:24:09.021Z,21.20
2019-04-05T14:37:31.765Z,21.20
2019-04-05T15:03:56.175Z,21.30
2019-04-05T15:17:03.427Z,21.30
2019-04-05T15:30:10.798Z,21.30
2019-04-05T15:43:18.215Z,21.40
2019-04-05T15:56:25.463Z,21.40
2019-04-05T16:09:49.533Z,21.40
2019-04-05T16:23:12.355Z,21.30
2019-04-05T16:36:35.250Z,21.40
2019-04-05T16:49:58.105Z,21.40
2019-04-05T17:03:20.813Z,21.50
2019-04-05T17:16:43.689Z,21.50
2019-04-05T17:30:06.546Z,21.30
2019-04-05T17:43:29.289Z,21.30
2019-04-05T17:56:52.177Z,21.30
2019-04-05T18:23:24.783Z,21.30
2019-04-05T18:36:24.182Z,21.30
2019-04-05T18:49:31.620Z,21.10
2019-04-05T19:02:39.020Z,21.00
2019-04-05T19:16:03.578Z,20.60
2019-04-05T19:29:26.322Z,20.70
2019-04-05T19:56:12.028Z,20.90
2019-04-05T20:09:34.688Z,20.80
2019-04-05T20:22:57.962Z,20.80
2019-04-05T20:36:20.500Z,20.80
2019-04-05T20:49:43.182Z,20.90
2019-04-05T21:03:05.920Z,20.90
2019-04-05T21:16:28.885Z,20.70
2019-04-05T21:29:51.930Z,20.80
2019-04-05T21:43:14.481Z,20.80
2019-04-05T21:56:37.345Z,20.80
2019-04-05T22:10:00.212Z,20.70
2019-04-05T22:23:22.843Z,20.80
2019-04-05T22:36:45.702Z,20.80
2019-04-05T22:50:08.444Z,20.80
2019-04-05T23:03:31.360Z,20.80
2019-04-05T23:16:54.117Z,20.70
2019-04-05T23:43:51.940Z,20.80
2019-04-05T23:56:59.280Z,20.70
